sensor_id;sensor_type;location;lat;lon;timestamp;pressure;altitude;pressure_sealevel;temperature;humidity
39487;BME280;25173;50.430;18.926;2022-08-21T00:02:00;97815.38;;;22.28;84.50
39487;BME280;25173;50.430;18.926;2022-08-21T00:05:00;97802.31;;;22.44;84.07
39487;BME280;25173;50.430;18.926;2022-08-21T00:08:02;97807.38;;;22.58;84.01
39487;BME280;25173;50.430;18.926;2022-08-21T00:11:03;97808.81;;;22.67;83.16
39487;BME280;25173;50.430;18.926;2022-08-21T00:14:07;97807.53;;;22.65;82.84
39487;BME280;25173;50.430;18.926;2022-08-21T00:17:08;97798.09;;;22.50;82.96
39487;BME280;25173;50.430;18.926;2022-08-21T00:20:10;97797.47;;;22.41;83.47
39487;BME280;25173;50.430;18.926;2022-08-21T00:23:12;97802.56;;;22.39;83.96
39487;BME280;25173;50.430;18.926;2022-08-21T00:26:13;97794.25;;;22.39;83.64
39487;BME280;25173;50.430;18.926;2022-08-21T00:29:14;97799.97;;;22.46;83.94
39487;BME280;25173;50.430;18.926;2022-08-21T00:32:22;97803.69;;;22.54;83.27
39487;BME280;25173;50.430;18.926;2022-08-21T00:35:28;97802.81;;;22.50;83.22
39487;BME280;25173;50.430;18.926;2022-08-21T00:38:29;97801.16;;;22.45;83.04
39487;BME280;25173;50.430;18.926;2022-08-21T00:41:30;97793.88;;;22.40;83.27
39487;BME280;25173;50.430;18.926;2022-08-21T00:44:30;97788.69;;;22.39;83.60
39487;BME280;25173;50.430;18.926;2022-08-21T00:47:31;97781.16;;;22.39;83.27
39487;BME280;25173;50.430;18.926;2022-08-21T00:50:36;97783.75;;;22.48;83.06
39487;BME280;25173;50.430;18.926;2022-08-21T00:53:42;97781.25;;;22.59;83.09
39487;BME280;25173;50.430;18.926;2022-08-21T00:56:45;97782.56;;;22.65;82.58
39487;BME280;25173;50.430;18.926;2022-08-21T00:59:49;97774.13;;;22.61;82.52
39487;BME280;25173;50.430;18.926;2022-08-21T01:02:51;97769.81;;;22.44;82.71
39487;BME280;25173;50.430;18.926;2022-08-21T01:05:52;97765.63;;;22.35;83.17
39487;BME280;25173;50.430;18.926;2022-08-21T01:08:53;97765.63;;;22.35;83.33
39487;BME280;25173;50.430;18.926;2022-08-21T01:11:54;97760.06;;;22.35;83.14
39487;BME280;25173;50.430;18.926;2022-08-21T01:14:54;97763.19;;;22.33;83.25
39487;BME280;25173;50.430;18.926;2022-08-21T01:17:55;97755.97;;;22.29;83.10
39487;BME280;25173;50.430;18.926;2022-08-21T01:21:06;97749.00;;;22.19;83.50
39487;BME280;25173;50.430;18.926;2022-08-21T01:24:07;97739.00;;;22.15;83.77
39487;BME280;25173;50.430;18.926;2022-08-21T01:27:08;97740.03;;;22.10;83.92
39487;BME280;25173;50.430;18.926;2022-08-21T01:30:21;97729.59;;;22.03;84.18
39487;BME280;25173;50.430;18.926;2022-08-21T01:33:24;97737.03;;;21.99;84.17
39487;BME280;25173;50.430;18.926;2022-08-21T01:36:25;97739.81;;;21.99;84.49
39487;BME280;25173;50.430;18.926;2022-08-21T01:39:26;97735.88;;;22.00;84.52
39487;BME280;25173;50.430;18.926;2022-08-21T01:42:26;97726.53;;;22.08;83.95
39487;BME280;25173;50.430;18.926;2022-08-21T01:45:27;97728.59;;;22.12;84.04
39487;BME280;25173;50.430;18.926;2022-08-21T01:48:27;97716.34;;;22.13;84.07
39487;BME280;25173;50.430;18.926;2022-08-21T01:51:28;97705.16;;;22.09;83.85
39487;BME280;25173;50.430;18.926;2022-08-21T01:54:29;97695.50;;;22.03;83.96
39487;BME280;25173;50.430;18.926;2022-08-21T01:57:30;97696.66;;;22.02;84.11
39487;BME280;25173;50.430;18.926;2022-08-21T02:00:31;97684.06;;;22.04;83.86
39487;BME280;25173;50.430;18.926;2022-08-21T02:03:32;97676.44;;;22.01;83.98
39487;BME280;25173;50.430;18.926;2022-08-21T02:06:32;97679.50;;;21.96;84.24
39487;BME280;25173;50.430;18.926;2022-08-21T02:09:33;97675.44;;;21.94;84.17
39487;BME280;25173;50.430;18.926;2022-08-21T02:12:34;97684.03;;;21.89;84.13
39487;BME280;25173;50.430;18.926;2022-08-21T02:15:34;97679.13;;;21.82;84.36
39487;BME280;25173;50.430;18.926;2022-08-21T02:18:36;97669.50;;;21.76;84.91
39487;BME280;25173;50.430;18.926;2022-08-21T02:21:37;97666.53;;;21.69;85.18
39487;BME280;25173;50.430;18.926;2022-08-21T02:24:38;97674.22;;;21.60;85.52
39487;BME280;25173;50.430;18.926;2022-08-21T02:27:42;97663.03;;;21.56;85.48
39487;BME280;25173;50.430;18.926;2022-08-21T02:30:45;97676.81;;;21.53;85.95
39487;BME280;25173;50.430;18.926;2022-08-21T02:33:46;97676.38;;;21.51;86.28
39487;BME280;25173;50.430;18.926;2022-08-21T02:36:47;97666.63;;;21.57;86.14
39487;BME280;25173;50.430;18.926;2022-08-21T02:39:47;97659.94;;;21.58;86.31
39487;BME280;25173;50.430;18.926;2022-08-21T02:42:48;97669.16;;;21.62;86.24
39487;BME280;25173;50.430;18.926;2022-08-21T02:45:50;97674.94;;;21.73;86.23
39487;BME280;25173;50.430;18.926;2022-08-21T02:48:51;97675.91;;;21.80;86.20
39487;BME280;25173;50.430;18.926;2022-08-21T02:51:52;97673.75;;;21.89;85.84
39487;BME280;25173;50.430;18.926;2022-08-21T02:54:52;97678.78;;;21.99;85.47
39487;BME280;25173;50.430;18.926;2022-08-21T02:57:54;97675.84;;;22.08;85.44
39487;BME280;25173;50.430;18.926;2022-08-21T03:00:55;97679.84;;;22.11;85.22
39487;BME280;25173;50.430;18.926;2022-08-21T03:03:56;97682.16;;;22.08;85.38
39487;BME280;25173;50.430;18.926;2022-08-21T03:06:57;97680.13;;;22.05;85.38
39487;BME280;25173;50.430;18.926;2022-08-21T03:09:58;97679.31;;;22.05;85.43
39487;BME280;25173;50.430;18.926;2022-08-21T03:12:58;97671.88;;;22.09;85.39
39487;BME280;25173;50.430;18.926;2022-08-21T03:15:59;97674.72;;;22.13;85.20
39487;BME280;25173;50.430;18.926;2022-08-21T03:19:00;97672.03;;;22.16;85.20
39487;BME280;25173;50.430;18.926;2022-08-21T03:22:01;97683.22;;;22.20;85.15
39487;BME280;25173;50.430;18.926;2022-08-21T03:25:03;97679.28;;;22.21;84.97
39487;BME280;25173;50.430;18.926;2022-08-21T03:28:06;97678.13;;;22.22;84.63
39487;BME280;25173;50.430;18.926;2022-08-21T03:31:07;97680.16;;;22.25;84.83
39487;BME280;25173;50.430;18.926;2022-08-21T03:34:08;97681.41;;;22.27;84.77
39487;BME280;25173;50.430;18.926;2022-08-21T03:37:09;97689.09;;;22.34;84.83
39487;BME280;25173;50.430;18.926;2022-08-21T03:40:13;97696.25;;;22.35;84.38
39487;BME280;25173;50.430;18.926;2022-08-21T03:43:14;97692.72;;;22.38;84.77
39487;BME280;25173;50.430;18.926;2022-08-21T03:46:15;97700.44;;;22.44;84.45
39487;BME280;25173;50.430;18.926;2022-08-21T03:49:15;97702.56;;;22.51;84.42
39487;BME280;25173;50.430;18.926;2022-08-21T03:52:16;97703.13;;;22.60;84.01
39487;BME280;25173;50.430;18.926;2022-08-21T03:55:17;97706.09;;;22.67;84.01
39487;BME280;25173;50.430;18.926;2022-08-21T03:58:20;97703.47;;;22.74;83.89
39487;BME280;25173;50.430;18.926;2022-08-21T04:01:21;97713.47;;;22.79;83.67
39487;BME280;25173;50.430;18.926;2022-08-21T04:04:22;97704.03;;;22.83;83.41
39487;BME280;25173;50.430;18.926;2022-08-21T04:07:22;97702.53;;;22.86;83.45
39487;BME280;25173;50.430;18.926;2022-08-21T04:10:23;97697.47;;;22.92;83.37
39487;BME280;25173;50.430;18.926;2022-08-21T04:13:25;97697.56;;;22.95;83.05
39487;BME280;25173;50.430;18.926;2022-08-21T04:16:28;97700.38;;;22.99;83.06
39487;BME280;25173;50.430;18.926;2022-08-21T04:19:28;97699.66;;;23.02;83.22
39487;BME280;25173;50.430;18.926;2022-08-21T04:22:29;97694.69;;;23.11;83.01
39487;BME280;25173;50.430;18.926;2022-08-21T04:25:30;97702.41;;;23.21;82.66
39487;BME280;25173;50.430;18.926;2022-08-21T04:28:31;97699.47;;;23.33;82.47
39487;BME280;25173;50.430;18.926;2022-08-21T04:31:34;97703.25;;;23.44;82.40
39487;BME280;25173;50.430;18.926;2022-08-21T04:34:35;97707.41;;;23.54;82.03
39487;BME280;25173;50.430;18.926;2022-08-21T04:37:36;97710.78;;;23.63;81.81
39487;BME280;25173;50.430;18.926;2022-08-21T04:40:36;97708.91;;;23.71;81.82
39487;BME280;25173;50.430;18.926;2022-08-21T04:43:38;97707.34;;;23.73;81.47
39487;BME280;25173;50.430;18.926;2022-08-21T04:46:39;97708.59;;;23.76;80.98
39487;BME280;25173;50.430;18.926;2022-08-21T04:49:40;97715.31;;;23.75;81.04
39487;BME280;25173;50.430;18.926;2022-08-21T04:52:41;97708.59;;;23.76;80.56
39487;BME280;25173;50.430;18.926;2022-08-21T04:55:42;97703.34;;;23.71;80.43
39487;BME280;25173;50.430;18.926;2022-08-21T04:58:43;97714.03;;;23.69;80.50
39487;BME280;25173;50.430;18.926;2022-08-21T05:01:44;97714.47;;;23.71;80.61
39487;BME280;25173;50.430;18.926;2022-08-21T05:04:48;97715.78;;;23.77;80.78
39487;BME280;25173;50.430;18.926;2022-08-21T05:07:50;97720.56;;;23.80;80.67
39487;BME280;25173;50.430;18.926;2022-08-21T05:10:52;97727.81;;;23.84;80.77
39487;BME280;25173;50.430;18.926;2022-08-21T05:13:53;97733.50;;;23.91;80.31
39487;BME280;25173;50.430;18.926;2022-08-21T05:16:53;97737.94;;;23.96;80.12
39487;BME280;25173;50.430;18.926;2022-08-21T05:19:54;97740.81;;;24.03;80.08
39487;BME280;25173;50.430;18.926;2022-08-21T05:22:55;97744.16;;;24.12;80.11
39487;BME280;25173;50.430;18.926;2022-08-21T05:25:56;97751.38;;;24.17;79.90
39487;BME280;25173;50.430;18.926;2022-08-21T05:28:57;97745.16;;;24.23;79.51
39487;BME280;25173;50.430;18.926;2022-08-21T05:31:58;97753.22;;;24.28;78.98
39487;BME280;25173;50.430;18.926;2022-08-21T05:34:59;97757.16;;;24.27;78.96
39487;BME280;25173;50.430;18.926;2022-08-21T05:38:00;97761.13;;;24.26;78.84
39487;BME280;25173;50.430;18.926;2022-08-21T05:41:00;97767.00;;;24.21;78.92
39487;BME280;25173;50.430;18.926;2022-08-21T05:44:01;97766.91;;;24.18;78.71
39487;BME280;25173;50.430;18.926;2022-08-21T05:47:06;97771.66;;;24.17;78.96
39487;BME280;25173;50.430;18.926;2022-08-21T05:50:09;97780.00;;;24.17;78.74
39487;BME280;25173;50.430;18.926;2022-08-21T05:53:10;97769.69;;;24.18;78.47
39487;BME280;25173;50.430;18.926;2022-08-21T05:56:12;97771.66;;;24.17;78.48
39487;BME280;25173;50.430;18.926;2022-08-21T05:59:13;97771.25;;;24.15;78.72
39487;BME280;25173;50.430;18.926;2022-08-21T06:02:13;97771.25;;;24.15;78.65
39487;BME280;25173;50.430;18.926;2022-08-21T06:05:14;97765.69;;;24.15;78.60
39487;BME280;25173;50.430;18.926;2022-08-21T06:08:16;97774.41;;;24.14;78.28
39487;BME280;25173;50.430;18.926;2022-08-21T06:11:17;97779.91;;;24.10;77.90
39487;BME280;25173;50.430;18.926;2022-08-21T06:14:17;97782.13;;;24.01;78.16
39487;BME280;25173;50.430;18.926;2022-08-21T06:17:18;97782.75;;;23.91;78.42
39487;BME280;25173;50.430;18.926;2022-08-21T06:20:18;97791.22;;;23.75;78.96
39487;BME280;25173;50.430;18.926;2022-08-21T06:23:19;97789.72;;;23.58;79.19
39487;BME280;25173;50.430;18.926;2022-08-21T06:26:20;97796.31;;;23.31;78.86
39487;BME280;25173;50.430;18.926;2022-08-21T06:29:21;97795.25;;;22.81;78.92
39487;BME280;25173;50.430;18.926;2022-08-21T06:32:22;97797.63;;;22.48;78.45
39487;BME280;25173;50.430;18.926;2022-08-21T06:35:23;97803.22;;;22.01;79.33
39487;BME280;25173;50.430;18.926;2022-08-21T06:38:24;97807.53;;;21.55;80.42
39487;BME280;25173;50.430;18.926;2022-08-21T06:41:25;97803.97;;;21.14;79.69
39487;BME280;25173;50.430;18.926;2022-08-21T06:44:26;97811.25;;;20.79;80.31
39487;BME280;25173;50.430;18.926;2022-08-21T06:47:26;97807.22;;;20.64;80.75
39487;BME280;25173;50.430;18.926;2022-08-21T06:50:28;97802.06;;;20.50;81.17
39487;BME280;25173;50.430;18.926;2022-08-21T06:53:28;97800.69;;;20.44;81.09
39487;BME280;25173;50.430;18.926;2022-08-21T06:56:29;97806.66;;;20.46;81.63
39487;BME280;25173;50.430;18.926;2022-08-21T06:59:30;97799.88;;;20.56;81.04
39487;BME280;25173;50.430;18.926;2022-08-21T07:02:31;97792.34;;;20.69;81.15
39487;BME280;25173;50.430;18.926;2022-08-21T07:05:33;97797.50;;;20.82;80.97
39487;BME280;25173;50.430;18.926;2022-08-21T07:08:34;97796.53;;;20.90;80.63
39487;BME280;25173;50.430;18.926;2022-08-21T07:11:36;97801.94;;;20.99;80.55
39487;BME280;25173;50.430;18.926;2022-08-21T07:14:37;97801.72;;;21.04;80.21
39487;BME280;25173;50.430;18.926;2022-08-21T07:17:38;97799.81;;;21.20;80.31
39487;BME280;25173;50.430;18.926;2022-08-21T07:20:39;97803.97;;;21.26;79.76
39487;BME280;25173;50.430;18.926;2022-08-21T07:23:42;97804.59;;;21.36;79.48
39487;BME280;25173;50.430;18.926;2022-08-21T07:26:44;97802.59;;;21.48;79.37
39487;BME280;25173;50.430;18.926;2022-08-21T07:29:44;97800.56;;;21.61;78.96
39487;BME280;25173;50.430;18.926;2022-08-21T07:32:45;97811.84;;;21.68;78.62
39487;BME280;25173;50.430;18.926;2022-08-21T07:35:45;97798.53;;;21.89;78.48
39487;BME280;25173;50.430;18.926;2022-08-21T07:38:46;97799.88;;;21.95;77.42
39487;BME280;25173;50.430;18.926;2022-08-21T07:41:47;97800.19;;;22.06;77.26
39487;BME280;25173;50.430;18.926;2022-08-21T07:44:47;97801.41;;;22.08;77.09
39487;BME280;25173;50.430;18.926;2022-08-21T07:47:48;97792.75;;;22.10;76.98
39487;BME280;25173;50.430;18.926;2022-08-21T07:50:49;97795.16;;;22.12;76.59
39487;BME280;25173;50.430;18.926;2022-08-21T07:53:52;97786.31;;;22.22;76.52
39487;BME280;25173;50.430;18.926;2022-08-21T07:56:52;97785.09;;;22.38;75.64
39487;BME280;25173;50.430;18.926;2022-08-21T07:59:53;97795.16;;;22.43;74.77
39487;BME280;25173;50.430;18.926;2022-08-21T08:02:55;97788.16;;;22.49;74.79
39487;BME280;25173;50.430;18.926;2022-08-21T08:05:56;97791.53;;;22.58;74.38
39487;BME280;25173;50.430;18.926;2022-08-21T08:08:56;97793.81;;;22.72;74.38
39487;BME280;25173;50.430;18.926;2022-08-21T08:11:57;97795.13;;;22.94;74.18
39487;BME280;25173;50.430;18.926;2022-08-21T08:14:59;97793.97;;;22.95;72.85
39487;BME280;25173;50.430;18.926;2022-08-21T08:18:00;97786.84;;;22.97;72.41
39487;BME280;25173;50.430;18.926;2022-08-21T08:21:01;97779.56;;;23.08;72.32
39487;BME280;25173;50.430;18.926;2022-08-21T08:24:02;97785.22;;;23.12;72.03
39487;BME280;25173;50.430;18.926;2022-08-21T08:27:03;97793.03;;;23.26;72.31
39487;BME280;25173;50.430;18.926;2022-08-21T08:30:05;97795.88;;;23.48;72.06
39487;BME280;25173;50.430;18.926;2022-08-21T08:33:06;97799.78;;;23.67;70.99
39487;BME280;25173;50.430;18.926;2022-08-21T08:36:16;97799.44;;;23.68;70.28
39487;BME280;25173;50.430;18.926;2022-08-21T08:39:17;97799.19;;;23.77;70.94
39487;BME280;25173;50.430;18.926;2022-08-21T08:42:25;97793.09;;;23.90;70.51
39487;BME280;25173;50.430;18.926;2022-08-21T08:45:28;97799.34;;;24.07;70.14
39487;BME280;25173;50.430;18.926;2022-08-21T08:52:05;97805.94;;;24.44;68.76
39487;BME280;25173;50.430;18.926;2022-08-21T08:55:35;97809.31;;;24.57;67.91
39487;BME280;25173;50.430;18.926;2022-08-21T08:58:39;97802.19;;;24.59;67.51
39487;BME280;25173;50.430;18.926;2022-08-21T09:01:41;97803.63;;;24.76;67.85
39487;BME280;25173;50.430;18.926;2022-08-21T09:04:44;97799.03;;;24.87;67.54
39487;BME280;25173;50.430;18.926;2022-08-21T09:11:29;97798.53;;;25.08;66.16
39487;BME280;25173;50.430;18.926;2022-08-21T09:18:35;97790.97;;;25.08;66.46
39487;BME280;25173;50.430;18.926;2022-08-21T09:21:49;97780.63;;;25.09;66.58
39487;BME280;25173;50.430;18.926;2022-08-21T09:25:08;97789.50;;;25.18;66.59
39487;BME280;25173;50.430;18.926;2022-08-21T09:28:12;97784.69;;;25.15;65.86
39487;BME280;25173;50.430;18.926;2022-08-21T09:31:24;97792.75;;;25.24;66.07
39487;BME280;25173;50.430;18.926;2022-08-21T09:34:28;97792.88;;;25.34;66.36
39487;BME280;25173;50.430;18.926;2022-08-21T09:37:32;97795.78;;;25.41;65.96
39487;BME280;25173;50.430;18.926;2022-08-21T09:40:43;97799.31;;;25.38;65.32
39487;BME280;25173;50.430;18.926;2022-08-21T09:43:52;97791.75;;;25.39;65.77
39487;BME280;25173;50.430;18.926;2022-08-21T09:46:53;97793.34;;;25.40;65.67
39487;BME280;25173;50.430;18.926;2022-08-21T09:49:54;97791.44;;;25.47;65.22
39487;BME280;25173;50.430;18.926;2022-08-21T09:52:58;97791.28;;;25.33;64.32
39487;BME280;25173;50.430;18.926;2022-08-21T09:56:03;97799.84;;;25.18;64.90
39487;BME280;25173;50.430;18.926;2022-08-21T09:59:32;97791.72;;;25.05;64.64
39487;BME280;25173;50.430;18.926;2022-08-21T10:02:34;97808.13;;;24.84;64.88
39487;BME280;25173;50.430;18.926;2022-08-21T10:05:37;97804.44;;;24.50;65.76
39487;BME280;25173;50.430;18.926;2022-08-21T10:08:39;97799.94;;;24.19;66.03
39487;BME280;25173;50.430;18.926;2022-08-21T10:12:28;97805.59;;;24.00;66.73
39487;BME280;25173;50.430;18.926;2022-08-21T10:18:25;97803.78;;;24.11;67.41
39487;BME280;25173;50.430;18.926;2022-08-21T10:21:59;97800.63;;;24.13;67.03
39487;BME280;25173;50.430;18.926;2022-08-21T10:28:32;97805.97;;;24.21;67.26
39487;BME280;25173;50.430;18.926;2022-08-21T10:32:00;97803.31;;;24.28;66.84
39487;BME280;25173;50.430;18.926;2022-08-21T10:48:01;97800.09;;;24.79;66.65
39487;BME280;25173;50.430;18.926;2022-08-21T10:51:20;97806.63;;;24.90;64.98
39487;BME280;25173;50.430;18.926;2022-08-21T10:57:46;97801.72;;;25.40;66.09
39487;BME280;25173;50.430;18.926;2022-08-21T11:00:51;97798.41;;;25.64;65.75
39487;BME280;25173;50.430;18.926;2022-08-21T11:03:55;97806.38;;;25.62;63.55
39487;BME280;25173;50.430;18.926;2022-08-21T11:07:07;97808.00;;;25.63;64.50
39487;BME280;25173;50.430;18.926;2022-08-21T11:10:31;97820.41;;;25.69;63.54
39487;BME280;25173;50.430;18.926;2022-08-21T11:13:44;97814.47;;;25.74;64.42
39487;BME280;25173;50.430;18.926;2022-08-21T11:16:49;97810.72;;;25.60;64.05
39487;BME280;25173;50.430;18.926;2022-08-21T11:23:08;97817.69;;;25.13;65.13
39487;BME280;25173;50.430;18.926;2022-08-21T11:26:18;97823.13;;;24.76;65.55
39487;BME280;25173;50.430;18.926;2022-08-21T11:29:26;97827.63;;;24.58;66.52
39487;BME280;25173;50.430;18.926;2022-08-21T11:35:46;97835.50;;;24.52;66.56
39487;BME280;25173;50.430;18.926;2022-08-21T11:42:22;97825.09;;;24.49;66.88
39487;BME280;25173;50.430;18.926;2022-08-21T11:49:22;97826.50;;;24.36;67.53
39487;BME280;25173;50.430;18.926;2022-08-21T11:52:43;97828.78;;;24.30;67.52
39487;BME280;25173;50.430;18.926;2022-08-21T11:55:55;97828.16;;;24.41;67.60
39487;BME280;25173;50.430;18.926;2022-08-21T11:59:02;97822.59;;;24.41;67.58
39487;BME280;25173;50.430;18.926;2022-08-21T12:02:12;97831.06;;;24.25;67.29
39487;BME280;25173;50.430;18.926;2022-08-21T12:05:40;97824.94;;;23.93;67.66
39487;BME280;25173;50.430;18.926;2022-08-21T12:08:44;97824.81;;;23.67;68.71
39487;BME280;25173;50.430;18.926;2022-08-21T12:11:49;97829.75;;;23.54;69.16
39487;BME280;25173;50.430;18.926;2022-08-21T12:15:26;97821.16;;;23.24;69.71
39487;BME280;25173;50.430;18.926;2022-08-21T12:18:30;97825.88;;;22.85;70.85
39487;BME280;25173;50.430;18.926;2022-08-21T12:21:50;97834.78;;;22.59;72.42
39487;BME280;25173;50.430;18.926;2022-08-21T12:25:05;97828.91;;;22.45;72.70
39487;BME280;25173;50.430;18.926;2022-08-21T12:28:09;97831.94;;;22.40;72.69
39487;BME280;25173;50.430;18.926;2022-08-21T12:31:22;97834.19;;;22.34;72.96
39487;BME280;25173;50.430;18.926;2022-08-21T12:34:48;97829.16;;;22.24;73.34
39487;BME280;25173;50.430;18.926;2022-08-21T12:37:50;97827.38;;;22.16;73.87
39487;BME280;25173;50.430;18.926;2022-08-21T12:44:07;97823.88;;;22.03;74.91
39487;BME280;25173;50.430;18.926;2022-08-21T12:50:36;97825.19;;;21.94;75.93
39487;BME280;25173;50.430;18.926;2022-08-21T12:53:50;97826.19;;;22.01;75.24
39487;BME280;25173;50.430;18.926;2022-08-21T12:57:05;97817.47;;;21.99;75.75
39487;BME280;25173;50.430;18.926;2022-08-21T13:00:07;97823.72;;;22.12;75.19
39487;BME280;25173;50.430;18.926;2022-08-21T13:03:14;97821.94;;;22.20;74.64
39487;BME280;25173;50.430;18.926;2022-08-21T13:06:17;97822.38;;;22.22;74.84
39487;BME280;25173;50.430;18.926;2022-08-21T13:09:23;97820.03;;;22.24;74.62
39487;BME280;25173;50.430;18.926;2022-08-21T13:12:26;97825.56;;;22.24;74.86
39487;BME280;25173;50.430;18.926;2022-08-21T13:15:32;97828.09;;;22.13;74.77
39487;BME280;25173;50.430;18.926;2022-08-21T13:18:36;97835.28;;;21.86;75.10
39487;BME280;25173;50.430;18.926;2022-08-21T13:21:41;97830.78;;;21.66;75.71
39487;BME280;25173;50.430;18.926;2022-08-21T13:24:47;97832.00;;;21.53;76.87
39487;BME280;25173;50.430;18.926;2022-08-21T13:28:09;97837.84;;;21.36;77.06
39487;BME280;25173;50.430;18.926;2022-08-21T13:31:11;97846.69;;;21.25;77.12
39487;BME280;25173;50.430;18.926;2022-08-21T13:34:14;97845.06;;;21.24;77.40
39487;BME280;25173;50.430;18.926;2022-08-21T13:37:15;97842.91;;;21.18;77.37
39487;BME280;25173;50.430;18.926;2022-08-21T13:40:31;97842.66;;;21.11;78.09
39487;BME280;25173;50.430;18.926;2022-08-21T13:43:35;97843.75;;;20.94;78.35
39487;BME280;25173;50.430;18.926;2022-08-21T13:46:36;97848.72;;;20.88;78.21
39487;BME280;25173;50.430;18.926;2022-08-21T13:49:40;97861.03;;;20.91;77.71
39487;BME280;25173;50.430;18.926;2022-08-21T13:53:01;97863.03;;;20.78;77.42
39487;BME280;25173;50.430;18.926;2022-08-21T13:56:03;97861.66;;;20.72;77.43
39487;BME280;25173;50.430;18.926;2022-08-21T13:59:04;97861.09;;;20.67;77.81
39487;BME280;25173;50.430;18.926;2022-08-21T14:02:22;97853.34;;;20.48;77.87
39487;BME280;25173;50.430;18.926;2022-08-21T14:05:34;97859.78;;;20.28;78.84
39487;BME280;25173;50.430;18.926;2022-08-21T14:08:37;97862.41;;;20.12;78.86
39487;BME280;25173;50.430;18.926;2022-08-21T14:11:41;97859.50;;;19.96;79.36
39487;BME280;25173;50.430;18.926;2022-08-21T14:14:42;97868.59;;;19.85;80.34
39487;BME280;25173;50.430;18.926;2022-08-21T14:17:44;97860.13;;;19.69;80.70
39487;BME280;25173;50.430;18.926;2022-08-21T14:20:45;97853.56;;;19.61;81.32
39487;BME280;25173;50.430;18.926;2022-08-21T14:23:46;97849.16;;;19.60;81.87
39487;BME280;25173;50.430;18.926;2022-08-21T14:26:50;97857.72;;;19.67;81.34
39487;BME280;25173;50.430;18.926;2022-08-21T14:29:58;97874.78;;;19.69;81.41
39487;BME280;25173;50.430;18.926;2022-08-21T14:33:00;97854.78;;;19.52;82.01
39487;BME280;25173;50.430;18.926;2022-08-21T14:36:01;97863.59;;;19.45;82.33
39487;BME280;25173;50.430;18.926;2022-08-21T14:39:02;97868.53;;;19.39;82.52
39487;BME280;25173;50.430;18.926;2022-08-21T14:42:03;97873.91;;;19.36;82.51
39487;BME280;25173;50.430;18.926;2022-08-21T14:48:19;97885.00;;;19.27;82.79
39487;BME280;25173;50.430;18.926;2022-08-21T14:51:20;97883.13;;;19.19;83.02
39487;BME280;25173;50.430;18.926;2022-08-21T14:54:20;97878.63;;;19.15;83.37
39487;BME280;25173;50.430;18.926;2022-08-21T14:57:29;97874.72;;;19.16;83.52
39487;BME280;25173;50.430;18.926;2022-08-21T15:00:30;97883.13;;;19.19;83.60
39487;BME280;25173;50.430;18.926;2022-08-21T15:03:31;97896.16;;;19.19;83.42
39487;BME280;25173;50.430;18.926;2022-08-21T15:06:32;97897.84;;;19.11;83.77
39487;BME280;25173;50.430;18.926;2022-08-21T15:09:32;97892.38;;;19.03;84.08
39487;BME280;25173;50.430;18.926;2022-08-21T15:12:34;97878.97;;;18.92;84.46
39487;BME280;25173;50.430;18.926;2022-08-21T15:15:44;97881.22;;;18.90;84.59
39487;BME280;25173;50.430;18.926;2022-08-21T15:18:45;97884.16;;;18.94;84.78
39487;BME280;25173;50.430;18.926;2022-08-21T15:21:46;97881.06;;;18.95;84.59
39487;BME280;25173;50.430;18.926;2022-08-21T15:24:46;97888.19;;;18.96;84.51
39487;BME280;25173;50.430;18.926;2022-08-21T15:27:47;97885.56;;;19.00;84.88
39487;BME280;25173;50.430;18.926;2022-08-21T15:30:49;97891.75;;;18.97;84.53
39487;BME280;25173;50.430;18.926;2022-08-21T15:33:49;97892.09;;;18.95;84.51
39487;BME280;25173;50.430;18.926;2022-08-21T15:36:51;97898.88;;;18.98;84.48
39487;BME280;25173;50.430;18.926;2022-08-21T15:39:52;97893.50;;;19.02;84.20
39487;BME280;25173;50.430;18.926;2022-08-21T15:42:58;97894.16;;;18.98;84.23
39487;BME280;25173;50.430;18.926;2022-08-21T15:46:00;97892.22;;;18.99;84.38
39487;BME280;25173;50.430;18.926;2022-08-21T15:49:01;97891.09;;;19.00;84.37
39487;BME280;25173;50.430;18.926;2022-08-21T15:52:02;97907.44;;;19.05;84.01
39487;BME280;25173;50.430;18.926;2022-08-21T15:55:04;97914.44;;;19.03;84.05
39487;BME280;25173;50.430;18.926;2022-08-21T15:58:05;97914.50;;;18.94;83.95
39487;BME280;25173;50.430;18.926;2022-08-21T16:01:06;97922.56;;;18.78;84.30
39487;BME280;25173;50.430;18.926;2022-08-21T16:04:07;97926.16;;;18.70;84.62
39487;BME280;25173;50.430;18.926;2022-08-21T16:07:08;97923.31;;;18.58;84.84
39487;BME280;25173;50.430;18.926;2022-08-21T16:10:09;97916.00;;;18.53;84.93
39487;BME280;25173;50.430;18.926;2022-08-21T16:13:18;97920.06;;;18.47;85.15
39487;BME280;25173;50.430;18.926;2022-08-21T16:16:22;97915.72;;;18.38;85.29
39487;BME280;25173;50.430;18.926;2022-08-21T16:19:23;97918.69;;;18.33;85.50
39487;BME280;25173;50.430;18.926;2022-08-21T16:22:25;97909.13;;;18.30;85.78
39487;BME280;25173;50.430;18.926;2022-08-21T16:25:26;97915.63;;;18.26;85.87
39487;BME280;25173;50.430;18.926;2022-08-21T16:28:27;97908.03;;;18.22;86.02
39487;BME280;25173;50.430;18.926;2022-08-21T16:31:28;97908.50;;;18.24;86.33
39487;BME280;25173;50.430;18.926;2022-08-21T16:34:30;97906.53;;;18.25;86.12
39487;BME280;25173;50.430;18.926;2022-08-21T16:37:31;97913.84;;;18.30;85.78
39487;BME280;25173;50.430;18.926;2022-08-21T16:40:32;97910.91;;;18.35;85.79
39487;BME280;25173;50.430;18.926;2022-08-21T16:43:33;97909.09;;;18.39;85.58
39487;BME280;25173;50.430;18.926;2022-08-21T16:46:37;97913.47;;;18.40;85.46
39487;BME280;25173;50.430;18.926;2022-08-21T16:49:38;97910.38;;;18.41;85.32
39487;BME280;25173;50.430;18.926;2022-08-21T16:52:39;97913.75;;;18.47;85.33
39487;BME280;25173;50.430;18.926;2022-08-21T16:55:40;97922.03;;;18.47;85.44
39487;BME280;25173;50.430;18.926;2022-08-21T16:58:44;97917.19;;;18.44;85.38